createdAt,value
2017-05-26T00:00:02.475Z,16.33
2017-05-26T00:01:11.766Z,16.28
2017-05-26T00:02:20.725Z,16.35
2017-05-26T00:03:29.686Z,16.31
2017-05-26T00:04:38.643Z,16.31
2017-05-26T00:05:47.599Z,16.31
2017-05-26T00:06:56.856Z,16.25
2017-05-26T00:08:05.808Z,16.21
2017-05-26T00:09:14.770Z,16.24
2017-05-26T00:10:23.732Z,16.23
2017-05-26T00:11:32.777Z,16.2
2017-05-26T00:12:41.987Z,16.21
2017-05-26T00:13:51.002Z,16.21
2017-05-26T00:15:00.300Z,16.21
2017-05-26T00:16:09.261Z,16.21
2017-05-26T00:17:18.224Z,16.2
2017-05-26T00:18:27.448Z,16.25
2017-05-26T00:19:36.408Z,16.15
2017-05-26T00:20:45.373Z,16.21
2017-05-26T00:21:54.327Z,16.17
2017-05-26T00:23:03.287Z,16.14
2017-05-26T00:24:12.580Z,16.17
2017-05-26T00:25:21.551Z,16.2
2017-05-26T00:26:30.504Z,16.11
2017-05-26T00:27:39.469Z,16.12
2017-05-26T00:28:48.435Z,16.14
2017-05-26T00:29:57.730Z,16.15
2017-05-26T00:31:06.694Z,16.15
2017-05-26T00:32:15.658Z,16.09
2017-05-26T00:33:24.709Z,16.09
2017-05-26T00:34:33.667Z,16.15
2017-05-26T00:35:42.880Z,16.12
2017-05-26T00:36:52.160Z,16.17
2017-05-26T00:38:01.127Z,16.02
2017-05-26T00:39:10.091Z,16.02
2017-05-26T00:40:19.053Z,16.02
2017-05-26T00:41:28.258Z,16.04
2017-05-26T00:42:37.221Z,16.01
2017-05-26T00:43:46.189Z,16.01
2017-05-26T00:44:55.153Z,16
2017-05-26T00:46:04.121Z,16.04
2017-05-26T00:47:13.333Z,16.05
2017-05-26T00:48:22.294Z,16.04
2017-05-26T00:49:31.246Z,16
2017-05-26T00:50:40.208Z,16.01
2017-05-26T00:51:49.172Z,16.01
2017-05-26T00:52:58.390Z,16
2017-05-26T00:54:07.346Z,16.01
2017-05-26T00:55:16.311Z,16.02
2017-05-26T00:56:25.273Z,16.01
2017-05-26T00:57:34.231Z,16.05
2017-05-26T00:58:43.439Z,15.96
2017-05-26T00:59:52.488Z,16
2017-05-26T01:01:01.446Z,16.05
2017-05-26T01:02:10.415Z,15.96
2017-05-26T01:03:19.372Z,15.97
2017-05-26T01:04:28.673Z,16.01
2017-05-26T01:05:37.631Z,16.04
2017-05-26T01:06:46.594Z,16.04
2017-05-26T01:07:55.880Z,15.93
2017-05-26T01:09:04.841Z,16.01
2017-05-26T01:10:14.098Z,15.94
2017-05-26T01:11:23.142Z,15.96
2017-05-26T01:12:32.444Z,15.96
2017-05-26T01:13:41.412Z,15.87
2017-05-26T01:14:50.388Z,15.86
2017-05-26T01:15:59.595Z,15.93
2017-05-26T01:17:08.558Z,15.84
2017-05-26T01:18:17.607Z,15.87
2017-05-26T01:19:26.577Z,15.84
2017-05-26T01:20:35.534Z,15.84
2017-05-26T01:21:44.739Z,15.84
2017-05-26T01:22:53.705Z,15.74
2017-05-26T01:24:02.673Z,15.74
2017-05-26T01:25:11.631Z,15.8
2017-05-26T01:26:20.587Z,15.76
2017-05-26T01:27:29.800Z,15.74
2017-05-26T01:28:38.852Z,15.86
2017-05-26T01:29:47.826Z,15.83
2017-05-26T01:30:56.782Z,15.84
2017-05-26T01:32:05.738Z,15.82
2017-05-26T01:33:14.999Z,15.78
2017-05-26T01:34:23.955Z,15.76
2017-05-26T01:35:32.928Z,15.82
2017-05-26T01:36:41.882Z,15.71
2017-05-26T01:37:50.838Z,15.68
2017-05-26T01:39:00.049Z,15.71
2017-05-26T01:40:09.005Z,15.71
2017-05-26T01:41:17.971Z,15.71
2017-05-26T01:42:27.017Z,15.69
2017-05-26T01:43:36.042Z,15.68
2017-05-26T01:44:45.252Z,15.59
2017-05-26T01:45:54.211Z,15.53
2017-05-26T01:47:03.169Z,15.59
2017-05-26T01:48:12.141Z,15.59
2017-05-26T01:49:21.109Z,15.5
2017-05-26T01:50:30.374Z,15.5
2017-05-26T01:51:39.391Z,15.47
2017-05-26T01:52:48.361Z,15.5
2017-05-26T01:53:57.325Z,15.46
2017-05-26T01:55:06.282Z,15.56
2017-05-26T01:56:15.493Z,15.44
2017-05-26T01:57:24.452Z,15.47
2017-05-26T01:58:33.412Z,15.47
2017-05-26T01:59:42.374Z,15.5
2017-05-26T02:00:51.335Z,15.49
2017-05-26T02:02:00.546Z,15.44
2017-05-26T02:03:09.502Z,15.43
2017-05-26T02:04:18.517Z,15.47
2017-05-26T02:05:27.477Z,15.49
2017-05-26T02:06:36.434Z,15.47
2017-05-26T02:07:45.697Z,15.43
2017-05-26T02:08:54.656Z,15.36
2017-05-26T02:10:03.623Z,15.35
2017-05-26T02:11:12.581Z,15.41
2017-05-26T02:12:21.596Z,15.49
2017-05-26T02:13:30.808Z,15.49
2017-05-26T02:14:39.771Z,15.49
2017-05-26T02:15:48.733Z,15.35
2017-05-26T02:16:57.693Z,15.49
2017-05-26T02:18:06.664Z,15.47
2017-05-26T02:19:15.923Z,15.35
2017-05-26T02:20:25.214Z,15.38
2017-05-26T02:21:34.171Z,15.47
2017-05-26T02:22:43.199Z,15.46
2017-05-26T02:23:52.160Z,15.35
2017-05-26T02:25:01.381Z,15.36
2017-05-26T02:26:10.337Z,15.38
2017-05-26T02:27:19.293Z,15.38
2017-05-26T02:28:28.253Z,15.36
2017-05-26T02:29:37.226Z,15.44
2017-05-26T02:30:46.489Z,15.44
2017-05-26T02:31:55.453Z,15.43
2017-05-26T02:33:04.415Z,15.38
2017-05-26T02:34:13.429Z,15.38
2017-05-26T02:35:22.384Z,15.41
2017-05-26T02:36:31.595Z,15.43
2017-05-26T02:37:40.653Z,15.44
2017-05-26T02:38:49.607Z,15.36
2017-05-26T02:39:58.574Z,15.34
2017-05-26T02:41:07.537Z,15.25
2017-05-26T02:42:16.743Z,15.2
2017-05-26T02:43:25.704Z,15.25
2017-05-26T02:44:34.663Z,15.25
2017-05-26T02:45:43.714Z,15.23
2017-05-26T02:46:52.669Z,15.19
2017-05-26T02:48:01.932Z,15.19
2017-05-26T02:49:10.891Z,15.14
2017-05-26T02:50:19.847Z,15.19
2017-05-26T02:51:28.808Z,15.2
2017-05-26T02:52:37.763Z,15.17
2017-05-26T02:53:46.975Z,15.23
2017-05-26T02:54:56.024Z,15.21
2017-05-26T02:56:04.985Z,15.23
2017-05-26T02:57:13.945Z,15.17
2017-05-26T02:58:22.905Z,15.16
2017-05-26T02:59:32.125Z,15.13
2017-05-26T03:00:41.086Z,15.14
2017-05-26T03:01:50.111Z,15.13
2017-05-26T03:02:59.070Z,15.13
2017-05-26T03:04:08.030Z,15.19
2017-05-26T03:05:17.295Z,15.11
2017-05-26T03:06:26.249Z,15.19
2017-05-26T03:07:35.205Z,15.16
2017-05-26T03:08:44.250Z,15.11
2017-05-26T03:09:53.302Z,15.17
2017-05-26T03:11:02.566Z,15.2
2017-05-26T03:12:11.844Z,15.16
2017-05-26T03:13:20.804Z,15.13
2017-05-26T03:14:29.773Z,15.06
2017-05-26T03:15:38.727Z,15.03
2017-05-26T03:16:47.934Z,15.11
2017-05-26T03:17:56.905Z,15.09
2017-05-26T03:19:05.863Z,15.14
2017-05-26T03:20:14.823Z,15.06
2017-05-26T03:21:23.778Z,15.07
2017-05-26T03:22:32.983Z,15.11
2017-05-26T03:23:41.945Z,15.1
2017-05-26T03:24:51.225Z,15.17
2017-05-26T03:26:00.181Z,15.11
2017-05-26T03:27:09.138Z,15.09
2017-05-26T03:28:18.353Z,15.03
2017-05-26T03:29:27.315Z,15.06
2017-05-26T03:30:36.657Z,15.2
2017-05-26T03:31:45.614Z,15.19
2017-05-26T03:32:54.569Z,15.11
2017-05-26T03:34:03.780Z,15.17
2017-05-26T03:35:12.743Z,15.16
2017-05-26T03:36:21.701Z,15.19
2017-05-26T03:37:30.666Z,15.2
2017-05-26T03:38:39.635Z,15.2
2017-05-26T03:39:48.844Z,15.19
2017-05-26T03:40:57.802Z,15.2
2017-05-26T03:42:06.758Z,15.23
2017-05-26T03:43:15.720Z,15.29
2017-05-26T03:44:24.676Z,15.2
2017-05-26T03:45:33.889Z,15.21
2017-05-26T03:46:42.844Z,15.2
2017-05-26T03:47:51.811Z,15.19
2017-05-26T03:49:00.780Z,15.2
2017-05-26T03:50:09.738Z,15.11
2017-05-26T03:51:18.945Z,15.11
2017-05-26T03:52:27.911Z,15.11
2017-05-26T03:53:36.871Z,15.14
2017-05-26T03:54:45.833Z,15.2
2017-05-26T03:55:54.803Z,15.17
2017-05-26T03:57:04.011Z,15.2
2017-05-26T03:58:12.967Z,15.2
2017-05-26T03:59:21.929Z,15.19
2017-05-26T04:00:30.888Z,15.21
2017-05-26T04:01:39.933Z,15.19
2017-05-26T04:02:49.192Z,15.19
2017-05-26T04:03:58.162Z,15.2
2017-05-26T04:05:07.127Z,15.2
2017-05-26T04:06:16.423Z,15.17
2017-05-26T04:07:25.383Z,15.2
2017-05-26T04:08:34.642Z,15.19
2017-05-26T04:09:43.606Z,15.23
2017-05-26T04:10:52.574Z,15.21
2017-05-26T04:12:01.532Z,15.27
2017-05-26T04:13:10.493Z,15.27
2017-05-26T04:14:19.700Z,15.32
2017-05-26T04:15:28.722Z,15.2
2017-05-26T04:16:37.674Z,15.25
2017-05-26T04:17:46.634Z,15.28
2017-05-26T04:18:55.926Z,15.34
2017-05-26T04:20:05.185Z,15.31
2017-05-26T04:21:14.147Z,15.34
2017-05-26T04:22:23.110Z,15.36
2017-05-26T04:23:32.073Z,15.38
2017-05-26T04:24:41.032Z,15.32
2017-05-26T04:25:50.296Z,15.43
2017-05-26T04:26:59.250Z,15.35
2017-05-26T04:28:08.221Z,15.44
2017-05-26T04:29:17.182Z,15.46
2017-05-26T04:30:26.139Z,15.47
2017-05-26T04:31:35.338Z,15.47
2017-05-26T04:32:44.307Z,15.44
2017-05-26T04:33:53.271Z,15.5
2017-05-26T04:35:02.237Z,15.56
2017-05-26T04:36:11.198Z,15.59
2017-05-26T04:37:20.409Z,15.51
2017-05-26T04:38:29.372Z,15.53
2017-05-26T04:39:38.327Z,15.6
2017-05-26T04:40:47.288Z,15.68
2017-05-26T04:41:56.247Z,15.69
2017-05-26T04:43:05.454Z,15.68
2017-05-26T04:44:14.414Z,15.72
2017-05-26T04:45:23.379Z,15.75
2017-05-26T04:46:32.336Z,15.75
2017-05-26T04:47:41.296Z,15.72
2017-05-26T04:48:50.556Z,15.82
2017-05-26T04:49:59.519Z,15.82
2017-05-26T04:51:08.567Z,15.82
2017-05-26T04:52:17.527Z,15.82
2017-05-26T04:53:26.486Z,15.83
2017-05-26T04:54:35.696Z,15.8
2017-05-26T04:55:44.654Z,15.78
2017-05-26T04:56:53.610Z,15.82
2017-05-26T04:58:02.901Z,15.82
2017-05-26T04:59:11.863Z,15.84
2017-05-26T05:00:21.211Z,15.82
2017-05-26T05:01:30.167Z,15.76
2017-05-26T05:02:39.134Z,15.78
2017-05-26T05:03:48.102Z,15.8
2017-05-26T05:04:57.078Z,15.74
2017-05-26T05:06:06.290Z,15.75
2017-05-26T05:07:15.252Z,15.69
2017-05-26T05:08:24.218Z,15.69
2017-05-26T05:09:33.178Z,15.69
2017-05-26T05:10:42.140Z,15.69
2017-05-26T05:11:51.399Z,15.74
2017-05-26T05:13:00.355Z,15.6
2017-05-26T05:14:09.406Z,15.68
2017-05-26T05:15:18.371Z,15.6
2017-05-26T05:16:27.339Z,15.59
2017-05-26T05:17:36.550Z,15.65
2017-05-26T05:18:45.517Z,15.62
2017-05-26T05:19:54.482Z,15.56
2017-05-26T05:21:03.444Z,15.56
2017-05-26T05:22:12.398Z,15.64
2017-05-26T05:23:21.619Z,15.69
2017-05-26T05:24:30.583Z,15.65
2017-05-26T05:25:39.543Z,15.68
2017-05-26T05:26:48.590Z,15.69
2017-05-26T05:27:57.550Z,15.68
2017-05-26T05:29:06.760Z,15.6
2017-05-26T05:30:15.714Z,15.64
2017-05-26T05:31:24.675Z,15.65
2017-05-26T05:32:33.638Z,15.56
2017-05-26T05:33:42.602Z,15.6
2017-05-26T05:34:52.140Z,15.71
2017-05-26T05:36:01.095Z,15.68
2017-05-26T05:37:10.051Z,15.68
2017-05-26T05:38:19.015Z,15.62
2017-05-26T05:39:27.985Z,15.6
2017-05-26T05:40:37.193Z,15.69
2017-05-26T05:41:46.209Z,15.67
2017-05-26T05:42:55.171Z,15.68
2017-05-26T05:44:04.136Z,15.64
2017-05-26T05:45:13.091Z,15.71
2017-05-26T05:46:22.299Z,15.69
2017-05-26T05:47:31.258Z,15.68
2017-05-26T05:48:40.217Z,15.65
2017-05-26T05:49:49.181Z,15.72
2017-05-26T05:50:58.145Z,15.68
2017-05-26T05:52:07.359Z,15.71
2017-05-26T05:53:16.324Z,15.67
2017-05-26T05:54:25.282Z,15.71
2017-05-26T05:55:34.240Z,15.68
2017-05-26T05:56:43.199Z,15.72
2017-05-26T05:57:52.492Z,15.69
2017-05-26T05:59:01.455Z,15.71
2017-05-26T06:00:10.409Z,15.68
2017-05-26T06:01:19.369Z,15.74
2017-05-26T06:02:28.329Z,15.68
2017-05-26T06:03:37.536Z,15.75
2017-05-26T06:04:46.503Z,15.74
2017-05-26T06:05:55.470Z,15.72
2017-05-26T06:07:04.517Z,15.83
2017-05-26T06:08:13.477Z,15.75
2017-05-26T06:09:22.687Z,15.82
2017-05-26T06:10:31.648Z,15.76
2017-05-26T06:11:40.604Z,15.76
2017-05-26T06:12:49.572Z,15.8
2017-05-26T06:13:58.534Z,15.84
2017-05-26T06:15:08.071Z,15.83
2017-05-26T06:16:17.027Z,15.86
2017-05-26T06:17:25.997Z,15.89
2017-05-26T06:18:34.957Z,15.92
2017-05-26T06:19:43.913Z,15.9
2017-05-26T06:20:53.123Z,15.86
2017-05-26T06:22:02.081Z,15.92
2017-05-26T06:23:11.039Z,15.97
2017-05-26T06:24:19.997Z,16
2017-05-26T06:25:28.958Z,15.94
2017-05-26T06:26:38.165Z,15.9
2017-05-26T06:27:47.125Z,15.9
2017-05-26T06:28:56.081Z,16.04
2017-05-26T06:30:05.039Z,16
2017-05-26T06:31:14.003Z,16.02
2017-05-26T06:32:23.217Z,16.02
2017-05-26T06:33:32.180Z,16.01
2017-05-26T06:34:41.142Z,16.04
2017-05-26T06:35:50.163Z,16
2017-05-26T06:36:59.124Z,15.97
2017-05-26T06:38:08.391Z,16
2017-05-26T06:39:17.355Z,16.05
2017-05-26T06:40:26.312Z,16
2017-05-26T06:41:35.270Z,16.05
2017-05-26T06:42:44.233Z,16.07
2017-05-26T06:43:53.442Z,16.04
2017-05-26T06:45:02.403Z,16.09
2017-05-26T06:46:11.688Z,16.07
2017-05-26T06:47:20.645Z,16.04
2017-05-26T06:48:29.610Z,16.14
2017-05-26T06:49:38.822Z,16.11
2017-05-26T06:50:47.779Z,16.11
2017-05-26T06:51:56.737Z,16.11
2017-05-26T06:53:05.691Z,16.04
2017-05-26T06:54:14.664Z,16.05
2017-05-26T06:55:23.869Z,16.05
2017-05-26T06:56:32.829Z,16.11
2017-05-26T06:57:41.798Z,16.04
2017-05-26T06:58:50.773Z,16.04
2017-05-26T06:59:59.740Z,16.14
2017-05-26T07:01:08.945Z,16.12
2017-05-26T07:02:17.911Z,16.15
2017-05-26T07:03:26.963Z,16.04
2017-05-26T07:04:35.919Z,16.09
2017-05-26T07:05:44.881Z,16.21
2017-05-26T07:06:54.099Z,16.09
2017-05-26T07:08:03.057Z,16.12
2017-05-26T07:09:12.018Z,16.14
2017-05-26T07:10:20.975Z,16.11
2017-05-26T07:11:30.029Z,16.11
2017-05-26T07:12:39.242Z,16.2
2017-05-26T07:13:48.205Z,16.12
2017-05-26T07:14:57.168Z,16.09
2017-05-26T07:16:06.130Z,16.2
2017-05-26T07:17:15.084Z,16.15
2017-05-26T07:18:24.347Z,16.14
2017-05-26T07:19:33.305Z,16.09
2017-05-26T07:20:42.261Z,16.17
2017-05-26T07:21:51.223Z,16.2
2017-05-26T07:23:00.188Z,16.17
2017-05-26T07:24:09.399Z,16.12
2017-05-26T07:25:18.357Z,16.15
2017-05-26T07:26:27.319Z,16.2
2017-05-26T07:27:36.279Z,16.23
2017-05-26T07:28:45.248Z,16.15
2017-05-26T07:29:54.467Z,16.28
2017-05-26T07:31:03.421Z,16.3
2017-05-26T07:32:12.382Z,16.34
2017-05-26T07:33:21.341Z,16.35
2017-05-26T07:34:30.304Z,16.35
2017-05-26T07:35:39.566Z,16.35
2017-05-26T07:36:48.522Z,16.38
2017-05-26T07:37:57.486Z,16.34
2017-05-26T07:39:06.449Z,16.28
2017-05-26T07:40:15.410Z,16.34
2017-05-26T07:41:24.666Z,16.39
2017-05-26T07:42:33.625Z,16.45
2017-05-26T07:43:42.588Z,16.48
2017-05-26T07:44:51.561Z,16.43
2017-05-26T07:46:00.527Z,16.5
2017-05-26T07:47:09.741Z,16.52
2017-05-26T07:48:18.705Z,16.53
2017-05-26T07:49:27.665Z,16.52
2017-05-26T07:50:36.623Z,16.52
2017-05-26T07:51:45.580Z,16.57
2017-05-26T07:52:54.790Z,16.53
2017-05-26T07:54:04.082Z,16.58
2017-05-26T07:55:13.052Z,16.61
2017-05-26T07:56:22.102Z,16.58
2017-05-26T07:57:31.060Z,16.6
2017-05-26T07:58:40.269Z,16.53
2017-05-26T07:59:49.232Z,16.57
2017-05-26T08:00:58.190Z,16.58
2017-05-26T08:02:07.153Z,16.57
2017-05-26T08:03:16.205Z,16.52
2017-05-26T08:04:25.470Z,16.66
2017-05-26T08:05:34.430Z,16.7
2017-05-26T08:06:43.393Z,16.68
2017-05-26T08:07:52.353Z,16.81
2017-05-26T08:09:01.319Z,16.81
2017-05-26T08:10:10.579Z,16.89
2017-05-26T08:11:19.547Z,16.88
2017-05-26T08:12:28.594Z,16.89
2017-05-26T08:13:37.552Z,16.96
2017-05-26T08:14:46.520Z,16.94
2017-05-26T08:15:55.725Z,17
2017-05-26T08:17:04.774Z,17.04
2017-05-26T08:18:13.733Z,17.03
2017-05-26T08:19:22.697Z,17.01
2017-05-26T08:20:31.658Z,17.01
2017-05-26T08:21:40.868Z,17.07
2017-05-26T08:22:50.241Z,17.15
2017-05-26T08:23:59.205Z,17.12
2017-05-26T08:25:08.253Z,17.19
2017-05-26T08:26:17.208Z,17.26
2017-05-26T08:27:26.420Z,17.21
2017-05-26T08:28:35.376Z,17.25
2017-05-26T08:29:44.337Z,17.23
2017-05-26T08:30:53.387Z,17.23
2017-05-26T08:32:02.347Z,17.33
2017-05-26T08:33:11.559Z,17.38
2017-05-26T08:34:20.527Z,17.4
2017-05-26T08:35:29.489Z,17.44
2017-05-26T08:36:38.449Z,17.56
2017-05-26T08:37:47.503Z,17.55
2017-05-26T08:38:56.719Z,17.59
2017-05-26T08:40:05.996Z,17.59
2017-05-26T08:41:14.963Z,17.72
2017-05-26T08:42:23.929Z,17.7
2017-05-26T08:43:32.890Z,17.59
2017-05-26T08:44:42.150Z,17.7
2017-05-26T08:45:51.111Z,17.78
2017-05-26T08:47:00.076Z,17.75
2017-05-26T08:48:09.033Z,17.77
2017-05-26T08:49:18.324Z,17.75
2017-05-26T08:50:27.584Z,17.84
2017-05-26T08:51:36.544Z,17.92
2017-05-26T08:52:45.508Z,17.95
2017-05-26T08:53:54.475Z,17.97
2017-05-26T08:55:03.434Z,17.99
2017-05-26T08:56:12.641Z,18
2017-05-26T08:57:21.690Z,18.1
2017-05-26T08:58:30.662Z,18.23
2017-05-26T08:59:39.621Z,18.42
2017-05-26T09:00:48.584Z,18.41
2017-05-26T09:01:57.865Z,18.45
2017-05-26T09:03:06.828Z,18.54
2017-05-26T09:04:15.790Z,18.5
2017-05-26T09:05:24.750Z,18.58
2017-05-26T09:06:33.705Z,18.6
2017-05-26T09:07:42.965Z,18.55
2017-05-26T09:08:51.927Z,18.65
2017-05-26T09:10:00.892Z,18.7
2017-05-26T09:11:09.851Z,18.66
2017-05-26T09:12:18.905Z,18.67
2017-05-26T09:13:28.120Z,18.55
2017-05-26T09:14:37.078Z,18.63
2017-05-26T09:15:46.038Z,18.75
2017-05-26T09:16:54.999Z,18.76
2017-05-26T09:18:03.957Z,18.76
2017-05-26T09:19:13.221Z,18.81
2017-05-26T09:20:22.181Z,18.87
2017-05-26T09:21:31.141Z,18.78
2017-05-26T09:22:40.102Z,18.82
2017-05-26T09:23:49.064Z,18.8
2017-05-26T09:24:58.282Z,18.91
2017-05-26T09:26:07.250Z,18.95
2017-05-26T09:27:16.214Z,18.95
2017-05-26T09:28:25.183Z,19.11
2017-05-26T09:29:34.145Z,19.1
2017-05-26T09:30:43.412Z,19.16
2017-05-26T09:31:52.375Z,19.18
2017-05-26T09:33:01.349Z,19.13
2017-05-26T09:34:10.312Z,19.14
2017-05-26T09:35:19.271Z,19.16
2017-05-26T09:36:28.485Z,19.21
2017-05-26T09:37:37.446Z,19.16
2017-05-26T09:38:46.409Z,19.16
2017-05-26T09:39:55.376Z,19.08
2017-05-26T09:41:04.487Z,19.18
2017-05-26T09:42:13.699Z,19.33
2017-05-26T09:43:22.710Z,19.43
2017-05-26T09:44:31.673Z,19.63
2017-05-26T09:45:40.639Z,19.63
2017-05-26T09:46:49.599Z,19.62
2017-05-26T09:47:58.863Z,19.69
2017-05-26T09:49:07.825Z,19.59
2017-05-26T09:50:16.793Z,19.69
2017-05-26T09:51:25.756Z,19.63
2017-05-26T09:52:34.717Z,19.76
2017-05-26T09:53:43.982Z,19.8
2017-05-26T09:54:52.941Z,19.74
2017-05-26T09:56:01.901Z,19.92
2017-05-26T09:57:10.866Z,19.86
2017-05-26T09:58:19.833Z,19.99
2017-05-26T09:59:29.054Z,19.96
2017-05-26T10:00:38.016Z,20.01
2017-05-26T10:01:47.308Z,19.88
2017-05-26T10:02:56.330Z,19.98
2017-05-26T10:04:05.289Z,19.83
2017-05-26T10:05:14.553Z,19.98
2017-05-26T10:06:23.510Z,20.1
2017-05-26T10:07:32.798Z,20.08
2017-05-26T10:08:41.764Z,20.16
2017-05-26T10:09:50.733Z,20.16
2017-05-26T10:10:59.997Z,20.28
2017-05-26T10:12:08.954Z,20.26
2017-05-26T10:13:17.919Z,20.33
2017-05-26T10:14:26.890Z,20.52
2017-05-26T10:15:35.853Z,20.5
2017-05-26T10:16:45.074Z,20.61
2017-05-26T10:17:54.046Z,20.61
2017-05-26T10:19:03.101Z,20.62
2017-05-26T10:20:12.065Z,20.84
2017-05-26T10:21:21.025Z,20.82
2017-05-26T10:22:30.243Z,20.94
2017-05-26T10:23:39.298Z,20.97
2017-05-26T10:24:48.354Z,20.95
2017-05-26T10:25:57.316Z,20.94
2017-05-26T10:27:06.280Z,20.98
2017-05-26T10:28:15.546Z,20.95
2017-05-26T10:29:24.512Z,20.97
2017-05-26T10:30:33.478Z,20.99
2017-05-26T10:31:42.440Z,20.94
2017-05-26T10:32:51.409Z,20.97
2017-05-26T10:34:00.618Z,21.09
2017-05-26T10:35:09.594Z,21.01
2017-05-26T10:36:18.875Z,20.99
2017-05-26T10:37:27.834Z,21.01
2017-05-26T10:38:36.800Z,20.98
2017-05-26T10:39:46.064Z,20.97
2017-05-26T10:40:55.025Z,21.06
2017-05-26T10:42:03.991Z,21.06
2017-05-26T10:43:12.957Z,21.14
2017-05-26T10:44:21.925Z,21.09
2017-05-26T10:45:31.195Z,21.16
2017-05-26T10:46:40.167Z,21.31
2017-05-26T10:47:49.133Z,21.29
2017-05-26T10:48:58.107Z,21.35
2017-05-26T10:50:07.079Z,21.43
2017-05-26T10:51:16.346Z,21.59
2017-05-26T10:52:25.364Z,21.54
2017-05-26T10:53:34.334Z,21.49
2017-05-26T10:54:43.296Z,21.52
2017-05-26T10:55:52.259Z,21.47
2017-05-26T10:57:01.471Z,21.61
2017-05-26T10:58:10.441Z,21.52
2017-05-26T10:59:19.410Z,21.61
2017-05-26T11:00:28.374Z,21.62
2017-05-26T11:01:37.339Z,21.72
2017-05-26T11:02:46.601Z,21.71
2017-05-26T11:03:55.560Z,21.77
2017-05-26T11:05:04.524Z,21.82
2017-05-26T11:06:13.483Z,21.8
2017-05-26T11:07:22.510Z,21.79
2017-05-26T11:08:31.726Z,21.83
2017-05-26T11:09:40.695Z,21.88
2017-05-26T11:10:49.660Z,21.96
2017-05-26T11:11:58.628Z,22
2017-05-26T11:13:07.595Z,22.03
2017-05-26T11:14:16.859Z,21.98
2017-05-26T11:15:25.825Z,21.9
2017-05-26T11:16:34.789Z,21.84
2017-05-26T11:17:43.755Z,21.79
2017-05-26T11:18:52.719Z,21.83
2017-05-26T11:20:01.934Z,21.82
2017-05-26T11:21:11.219Z,21.83
2017-05-26T11:22:20.274Z,21.86
2017-05-26T11:23:29.900Z,21.99
2017-05-26T11:24:38.870Z,22.06
2017-05-26T11:25:48.140Z,22.05
2017-05-26T11:26:57.100Z,22.1
2017-05-26T11:28:06.078Z,22.18
2017-05-26T11:29:15.045Z,22.12
2017-05-26T11:30:24.009Z,22.18
2017-05-26T11:31:33.223Z,22.25
2017-05-26T11:32:42.190Z,22.37
2017-05-26T11:33:51.156Z,22.4
2017-05-26T11:35:00.778Z,22.35
2017-05-26T11:36:09.744Z,22.43
2017-05-26T11:37:19.006Z,22.46
2017-05-26T11:38:27.979Z,22.49
2017-05-26T11:39:36.946Z,22.47
2017-05-26T11:40:45.915Z,22.45
2017-05-26T11:41:55.057Z,22.37
2017-05-26T11:43:04.275Z,22.35
2017-05-26T11:44:13.248Z,22.28
2017-05-26T11:45:22.383Z,22.35
2017-05-26T11:46:31.351Z,22.46
2017-05-26T11:47:40.321Z,22.36
2017-05-26T11:48:49.594Z,22.43
2017-05-26T11:49:58.559Z,22.54
2017-05-26T11:51:07.541Z,22.57
2017-05-26T11:52:16.505Z,22.6
2017-05-26T11:53:25.486Z,22.62
2017-05-26T11:54:34.704Z,22.67
2017-05-26T11:55:43.663Z,22.73
2017-05-26T11:56:53.046Z,22.79
2017-05-26T11:58:02.328Z,22.67
2017-05-26T11:59:11.291Z,22.77
2017-05-26T12:00:20.555Z,22.72
2017-05-26T12:01:29.579Z,22.9
2017-05-26T12:02:38.541Z,22.86
2017-05-26T12:03:47.564Z,22.82
2017-05-26T12:04:56.531Z,22.79
2017-05-26T12:06:05.741Z,22.72
2017-05-26T12:07:14.705Z,22.61
2017-05-26T12:08:23.665Z,22.65
2017-05-26T12:09:32.637Z,22.85
2017-05-26T12:10:41.600Z,22.83
2017-05-26T12:11:50.812Z,22.85
2017-05-26T12:12:59.787Z,22.92
2017-05-26T12:14:08.745Z,22.95
2017-05-26T12:15:17.712Z,22.91
2017-05-26T12:16:26.675Z,22.88
2017-05-26T12:17:35.886Z,22.86
2017-05-26T12:18:44.853Z,22.88
2017-05-26T12:19:54.554Z,22.88
2017-05-26T12:21:03.519Z,22.86
2017-05-26T12:22:12.486Z,22.88
2017-05-26T12:23:21.697Z,22.97
2017-05-26T12:24:30.659Z,23.02
2017-05-26T12:25:39.620Z,22.97
2017-05-26T12:26:48.591Z,23.01
2017-05-26T12:27:57.555Z,23.02
2017-05-26T12:29:06.815Z,22.95
2017-05-26T12:30:15.778Z,22.88
2017-05-26T12:31:24.745Z,22.91
2017-05-26T12:32:33.706Z,22.97
2017-05-26T12:33:42.673Z,22.98
2017-05-26T12:34:51.944Z,22.83
2017-05-26T12:36:00.914Z,22.86
2017-05-26T12:37:09.880Z,22.85
2017-05-26T12:38:18.849Z,22.88
2017-05-26T12:39:27.804Z,22.9
2017-05-26T12:40:37.022Z,22.91
2017-05-26T12:41:46.077Z,22.92
2017-05-26T12:42:55.049Z,22.94
2017-05-26T12:44:04.018Z,23.09
2017-05-26T12:45:12.978Z,23.09
2017-05-26T12:46:22.239Z,23.07
2017-05-26T12:47:31.205Z,23.12
2017-05-26T12:48:40.911Z,23.1
2017-05-26T12:49:49.881Z,23.16
2017-05-26T12:50:58.846Z,23.19
2017-05-26T12:52:08.060Z,23.2
2017-05-26T12:53:17.031Z,23.33
2017-05-26T12:54:25.994Z,23.28
2017-05-26T12:55:34.958Z,23.27
2017-05-26T12:56:44.010Z,23.22
2017-05-26T12:57:53.235Z,23.2
2017-05-26T12:59:02.522Z,23.19
2017-05-26T13:00:11.504Z,23.07
2017-05-26T13:01:20.468Z,23.15
2017-05-26T13:02:29.432Z,23.07
2017-05-26T13:03:38.649Z,23.02
2017-05-26T13:04:47.616Z,23
2017-05-26T13:05:56.592Z,22.92
2017-05-26T13:07:05.557Z,22.86
2017-05-26T13:08:14.520Z,22.86
2017-05-26T13:09:23.788Z,22.83
2017-05-26T13:10:32.760Z,22.91
2017-05-26T13:11:41.730Z,22.91
2017-05-26T13:12:50.697Z,22.94
2017-05-26T13:13:59.664Z,22.97
2017-05-26T13:15:08.926Z,22.95
2017-05-26T13:16:17.908Z,22.9
2017-05-26T13:17:26.871Z,22.92
2017-05-26T13:18:35.838Z,22.91
2017-05-26T13:19:45.122Z,22.9
2017-05-26T13:20:54.338Z,22.88
2017-05-26T13:22:03.303Z,22.9
2017-05-26T13:23:12.353Z,22.75
2017-05-26T13:24:21.319Z,22.73
2017-05-26T13:25:30.283Z,22.72
2017-05-26T13:26:39.589Z,22.76
2017-05-26T13:27:48.889Z,22.6
2017-05-26T13:28:58.190Z,22.67
2017-05-26T13:30:07.159Z,22.54
2017-05-26T13:31:16.128Z,22.54
2017-05-26T13:32:25.344Z,22.64
2017-05-26T13:33:34.305Z,22.58
2017-05-26T13:34:43.334Z,22.6
2017-05-26T13:35:52.620Z,22.73
2017-05-26T13:37:01.597Z,22.72
2017-05-26T13:38:10.862Z,22.86
2017-05-26T13:39:19.884Z,22.92
2017-05-26T13:40:28.848Z,22.94
2017-05-26T13:41:37.813Z,22.9
2017-05-26T13:42:46.832Z,22.94
2017-05-26T13:43:56.096Z,22.92
2017-05-26T13:45:05.058Z,22.91
2017-05-26T13:46:14.017Z,22.91
2017-05-26T13:47:22.983Z,22.98
2017-05-26T13:48:31.946Z,22.94
2017-05-26T13:49:41.161Z,23.02
2017-05-26T13:50:50.184Z,23.12
2017-05-26T13:51:59.149Z,23.12
2017-05-26T13:53:08.200Z,23.19
2017-05-26T13:54:17.160Z,23.22
2017-05-26T13:55:26.372Z,23.13
2017-05-26T13:56:35.335Z,23.16
2017-05-26T13:57:44.298Z,23.1
2017-05-26T13:58:53.270Z,23.05
2017-05-26T14:00:02.234Z,23.13
2017-05-26T14:01:11.502Z,23.12
2017-05-26T14:02:20.466Z,23.1
2017-05-26T14:03:29.426Z,23.16
2017-05-26T14:04:38.395Z,23.27
2017-05-26T14:05:47.681Z,23.28
2017-05-26T14:06:57.029Z,23.35
2017-05-26T14:08:05.992Z,23.4
2017-05-26T14:09:14.957Z,23.32
2017-05-26T14:10:24.006Z,23.36
2017-05-26T14:11:32.968Z,23.25
2017-05-26T14:12:42.235Z,23.27
2017-05-26T14:13:51.202Z,23.28
2017-05-26T14:15:00.167Z,23.33
2017-05-26T14:16:09.144Z,23.31
2017-05-26T14:17:18.108Z,23.4
2017-05-26T14:18:27.321Z,23.42
2017-05-26T14:19:36.280Z,23.38
2017-05-26T14:20:45.327Z,23.4
2017-05-26T14:21:54.296Z,23.48
2017-05-26T14:23:03.262Z,23.5
2017-05-26T14:24:12.473Z,23.39
2017-05-26T14:25:21.438Z,23.43
2017-05-26T14:26:30.457Z,23.47
2017-05-26T14:27:39.514Z,23.47
2017-05-26T14:28:48.477Z,23.39
2017-05-26T14:29:57.864Z,23.38
2017-05-26T14:31:06.827Z,23.47
2017-05-26T14:32:15.798Z,23.46
2017-05-26T14:33:24.765Z,23.32
2017-05-26T14:34:33.731Z,23.33
2017-05-26T14:35:43.037Z,23.32
2017-05-26T14:36:52.002Z,23.31
2017-05-26T14:38:00.965Z,23.25
2017-05-26T14:39:09.928Z,23.23
2017-05-26T14:40:18.892Z,23.32
2017-05-26T14:41:28.110Z,23.28
2017-05-26T14:42:37.076Z,23.32
2017-05-26T14:43:46.043Z,23.38
2017-05-26T14:44:55.004Z,23.46
2017-05-26T14:46:03.964Z,23.42
2017-05-26T14:47:13.269Z,23.54
2017-05-26T14:48:22.325Z,23.58
2017-05-26T14:49:31.361Z,23.63
2017-05-26T14:50:40.323Z,23.63
2017-05-26T14:51:49.286Z,23.63
2017-05-26T14:52:58.501Z,23.6